Time;durP1;ratioP1;P1;durP2;ratioP2;P2;SDS_P1;SDS_P2;PMS_P1;PMS_P2;Temp;Humidity;BMP_temperature;BMP_pressure;BME280_temperature;BME280_humidity;BME280_pressure;Samples;Min_cycle;Max_cycle;Signal;HPM_P1;HPM_P2
2022/04/15 00:00:42;;;;;;;9.52;4.97;;;12.70;47.60;;;;;;5019990;28;20035;-74
2022/04/15 00:03:30;;;;;;;12.18;5.63;;;12.70;46.90;;;;;;5028896;28;20045;-73
2022/04/15 00:05:56;;;;;;;12.07;5.15;;;12.60;47.00;;;;;;5044745;28;20482;-74
2022/04/15 00:08:28;;;;;;;9.73;4.78;;;12.60;47.70;;;;;;5039981;28;20033;-74
2022/04/15 00:11:16;;;;;;;12.40;4.88;;;12.50;48.00;;;;;;5058093;28;20154;-74
2022/04/15 00:13:46;;;;;;;8.50;4.55;;;12.50;48.00;;;;;;5056681;28;20107;-74
2022/04/15 00:16:12;;;;;;;11.88;4.95;;;12.50;48.00;;;;;;5056458;28;20036;-74
2022/04/15 00:18:38;;;;;;;9.68;5.00;;;12.50;48.20;;;;;;5056417;28;20037;-74
2022/04/15 00:21:06;;;;;;;11.90;6.70;;;12.40;48.20;;;;;;5072977;28;20047;-74
2022/04/15 00:23:34;;;;;;;13.02;7.28;;;12.40;48.30;;;;;;5056387;28;20039;-74
2022/04/15 00:26:07;;;;;;;8.35;4.40;;;12.40;48.50;;;;;;5073714;28;20465;-74
2022/04/15 00:28:34;;;;;;;7.47;4.20;;;12.30;48.90;;;;;;5074124;28;20040;-74
2022/04/15 00:31:05;;;;;;;;;;;12.30;48.90;;;;;;5056390;28;20033;-74
2022/04/15 00:33:36;;;;;;;7.30;3.45;;;12.20;47.80;;;;;;5056163;28;19916;-74
2022/04/15 00:36:02;;;;;;;8.18;4.00;;;12.10;48.80;;;;;;5055175;28;20091;-74
2022/04/15 00:38:28;;;;;;;10.93;4.95;;;12.10;49.00;;;;;;5056103;28;20110;-74
2022/04/15 00:41:36;;;;;;;10.30;4.63;;;12.10;48.90;;;;;;5086371;28;20050;-74
2022/04/15 00:44:02;;;;;;;10.52;4.63;;;12.10;49.00;;;;;;5061513;28;20040;-74
2022/04/15 00:46:32;;;;;;;13.82;5.10;;;12.10;48.90;;;;;;5074663;28;20043;-74
2022/04/15 00:48:58;;;;;;;11.25;5.07;;;12.10;49.10;;;;;;5075813;28;20036;-74
2022/04/15 00:51:24;;;;;;;10.23;4.55;;;12.10;49.10;;;;;;5057679;28;20040;-74
2022/04/15 00:53:53;;;;;;;12.40;5.03;;;12.10;49.20;;;;;;5091366;28;20047;-73
2022/04/15 00:56:22;;;;;;;10.75;4.80;;;12.00;49.30;;;;;;5075564;28;20032;-74
2022/04/15 00:58:50;;;;;;;8.88;4.65;;;12.00;49.70;;;;;;5059122;28;20036;-74
2022/04/15 01:01:17;;;;;;;8.98;3.78;;;11.90;49.90;;;;;;5074337;28;20114;-73
2022/04/15 01:03:47;;;;;;;9.50;4.13;;;11.90;50.20;;;;;;5093660;28;20036;-73
2022/04/15 01:06:18;;;;;;;7.75;3.90;;;11.90;50.30;;;;;;5074047;28;20131;-74
2022/04/15 01:08:53;;;;;;;7.88;3.80;;;11.80;50.10;;;;;;5058845;28;20032;-74
2022/04/15 01:11:22;;;;;;;7.47;3.78;;;11.80;50.00;;;;;;5074846;28;20055;-74
2022/04/15 01:13:48;;;;;;;8.48;4.00;;;11.80;49.90;;;;;;5059065;28;20032;-74
2022/04/15 01:16:17;;;;;;;;;;;11.80;50.00;;;;;;5075457;28;20044;-74
2022/04/15 01:18:43;;;;;;;7.95;3.78;;;11.80;48.60;;;;;;5074857;28;19923;-74
2022/04/15 01:21:14;;;;;;;7.28;3.20;;;11.80;49.50;;;;;;5073665;28;20068;-73
2022/04/15 01:24:14;;;;;;;9.68;3.40;;;11.80;49.70;;;;;;5075263;28;20493;-74
2022/04/15 01:26:43;;;;;;;9.68;4.13;;;11.80;49.70;;;;;;5074655;28;20397;-74
2022/04/15 01:29:43;;;;;;;8.00;4.18;;;11.70;49.80;;;;;;5077641;28;20036;-74
2022/04/15 01:32:16;;;;;;;8.02;4.32;;;11.70;50.20;;;;;;5092916;28;20090;-74
2022/04/15 01:34:46;;;;;;;10.60;4.30;;;11.50;50.30;;;;;;5074794;28;20063;-74
2022/04/15 01:37:17;;;;;;;11.63;4.85;;;11.40;50.60;;;;;;5091683;28;20031;-74
2022/04/15 01:39:44;;;;;;;9.32;4.78;;;11.30;50.60;;;;;;5058195;28;20036;-73
2022/04/15 01:42:47;;;;;;;8.80;4.38;;;11.30;50.10;;;;;;5057886;28;20477;-74
2022/04/15 01:45:48;;;;;;;11.90;5.28;;;11.30;50.40;;;;;;5054501;28;20032;-74
2022/04/15 01:48:23;;;;;;;10.00;4.70;;;11.30;50.30;;;;;;5054911;28;20079;-73
2022/04/15 01:50:58;;;;;;;14.02;6.40;;;11.20;50.70;;;;;;5070281;28;20033;-74
2022/04/15 01:53:43;;;;;;;13.02;4.95;;;11.20;50.80;;;;;;5054862;28;20054;-74
2022/04/15 01:56:39;;;;;;;7.65;3.92;;;11.10;51.00;;;;;;5072449;28;20029;-74
2022/04/15 01:59:09;;;;;;;7.70;3.72;;;11.00;50.80;;;;;;5071561;28;20044;-74
2022/04/15 02:01:37;;;;;;;8.40;4.10;;;11.00;51.20;;;;;;5070957;28;20106;-74
2022/04/15 02:04:04;;;;;;;8.40;4.25;;;11.00;51.80;;;;;;5071191;28;20036;-74
2022/04/15 02:06:50;;;;;;;8.52;4.35;;;10.90;51.60;;;;;;5069863;28;20036;-73
2022/04/15 02:09:20;;;;;;;8.73;4.25;;;10.90;51.60;;;;;;5072427;28;20111;-73
2022/04/15 02:11:57;;;;;;;9.90;3.72;;;10.90;51.50;;;;;;5072176;28;20051;-74
2022/04/15 02:14:28;;;;;;;8.13;4.15;;;10.90;51.70;;;;;;5054677;28;20485;-74
2022/04/15 02:16:55;;;;;;;7.80;3.92;;;10.80;51.80;;;;;;5070921;28;20035;-73
2022/04/15 02:19:33;;;;;;;9.05;4.10;;;10.80;51.90;;;;;;5054350;28;20474;-73
2022/04/15 02:22:04;;;;;;;8.38;3.70;;;10.80;52.00;;;;;;5053007;28;20086;-73
2022/04/15 02:24:39;;;;;;;7.55;3.58;;;10.70;52.20;;;;;;5054421;28;20033;-74
2022/04/15 02:27:18;;;;;;;8.23;3.45;;;10.70;52.50;;;;;;5054082;28;20440;-74
2022/04/15 02:29:44;;;;;;;9.18;3.50;;;10.70;52.40;;;;;;5073087;28;20046;-74
2022/04/15 02:32:22;;;;;;;6.47;3.45;;;10.60;52.10;;;;;;5074332;28;20448;-73
2022/04/15 02:34:52;;;;;;;6.95;3.67;;;10.60;52.30;;;;;;5075164;28;20041;-73
2022/04/15 02:37:28;;;;;;;6.93;3.30;;;10.60;52.30;;;;;;5058376;28;20041;-73
2022/04/15 02:39:55;;;;;;;6.72;3.30;;;10.60;52.30;;;;;;5058703;28;20042;-74
2022/04/15 02:42:23;;;;;;;7.00;3.40;;;10.50;52.50;;;;;;5077860;28;20123;-74
2022/04/15 02:44:52;;;;;;;8.43;3.97;;;10.50;52.60;;;;;;5078266;28;20036;-74
2022/04/15 02:47:33;;;;;;;8.25;3.40;;;10.30;52.70;;;;;;5095983;28;20032;-74
2022/04/15 02:49:59;;;;;;;8.20;3.30;;;10.20;52.70;;;;;;5096326;28;20042;-73
2022/04/15 02:52:37;;;;;;;8.38;3.67;;;10.10;52.80;;;;;;5076929;28;20043;-73
2022/04/15 02:55:04;;;;;;;7.45;3.55;;;10.10;53.00;;;;;;5094846;28;20043;-74
2022/04/15 02:57:30;;;;;;;8.98;3.30;;;9.90;53.40;;;;;;5078044;28;20039;-73
2022/04/15 02:59:56;;;;;;;8.50;3.58;;;9.80;53.40;;;;;;5077975;28;20028;-74
2022/04/15 03:02:34;;;;;;;9.10;3.92;;;9.80;53.40;;;;;;5078396;28;20051;-73
2022/04/15 03:05:03;;;;;;;8.13;3.67;;;9.70;53.20;;;;;;5096081;28;20396;-73
2022/04/15 03:07:44;;;;;;;8.90;3.92;;;9.70;53.30;;;;;;5076838;28;20071;-73
2022/04/15 03:10:18;;;;;;;6.65;3.90;;;9.70;53.40;;;;;;5077310;28;20032;-73
2022/04/15 03:12:44;;;;;;;7.95;3.67;;;9.70;53.50;;;;;;5096174;28;20119;-73
2022/04/15 03:15:22;;;;;;;7.22;3.35;;;9.70;53.50;;;;;;5077134;28;20115;-74
2022/04/15 03:17:56;;;;;;;8.93;3.83;;;9.70;53.60;;;;;;5096340;28;20047;-73
2022/04/15 03:20:28;;;;;;;8.45;4.95;;;9.70;54.50;;;;;;5077113;28;20028;-73
2022/04/15 03:23:03;;;;;;;9.13;4.60;;;9.70;53.80;;;;;;5076921;28;20032;-73
2022/04/15 03:25:32;;;;;;;8.00;3.88;;;9.70;53.70;;;;;;5077258;28;20488;-73
2022/04/15 03:28:04;;;;;;;6.80;3.67;;;9.70;53.80;;;;;;5078181;28;20071;-73
2022/04/15 03:30:36;;;;;;;8.75;3.33;;;9.60;53.40;;;;;;5076476;28;20044;-73
2022/04/15 03:33:04;;;;;;;8.15;4.10;;;9.60;53.80;;;;;;5094504;28;20059;-73
2022/04/15 03:35:30;;;;;;;6.97;3.72;;;9.60;53.90;;;;;;5095061;28;20039;-73
2022/04/15 03:38:00;;;;;;;8.52;3.53;;;9.60;54.00;;;;;;5094827;28;20302;-74
2022/04/15 03:40:26;;;;;;;9.73;3.80;;;9.60;53.90;;;;;;5076303;28;20060;-74
2022/04/15 03:42:56;;;;;;;8.10;4.07;;;9.60;54.10;;;;;;5077579;28;20036;-73
2022/04/15 03:45:25;;;;;;;6.65;3.40;;;9.50;53.60;;;;;;5077025;28;20040;-73
2022/04/15 03:48:15;;;;;;;7.90;3.88;;;9.50;54.10;;;;;;5077712;28;20039;-73
2022/04/15 03:51:03;;;;;;;6.75;3.35;;;9.50;54.40;;;;;;5094464;28;20119;-73
2022/04/15 03:53:39;;;;;;;10.70;3.40;;;9.40;54.10;;;;;;5093996;28;20040;-73
2022/04/15 03:56:08;;;;;;;7.45;3.80;;;9.40;54.50;;;;;;5076548;28;20039;-73
2022/04/15 03:58:41;;;;;;;6.30;3.53;;;9.40;54.50;;;;;;5093827;28;20285;-73
2022/04/15 04:01:08;;;;;;;6.40;3.20;;;9.30;54.50;;;;;;5076379;28;20036;-73
2022/04/15 04:03:37;;;;;;;9.13;3.60;;;9.20;54.50;;;;;;5076886;28;20086;-74
2022/04/15 04:06:06;;;;;;;7.47;3.67;;;9.20;54.80;;;;;;5076408;28;20058;-74
2022/04/15 04:08:49;;;;;;;7.00;4.18;;;9.20;54.90;;;;;;5076201;28;20396;-74
2022/04/15 04:11:36;;;;;;;7.93;4.03;;;9.20;55.20;;;;;;5094282;28;20064;-73
2022/04/15 04:14:25;;;;;;;7.63;3.63;;;9.20;55.30;;;;;;5077111;28;20035;-74
2022/04/15 04:16:59;;;;;;;7.60;3.90;;;9.10;55.30;;;;;;5092937;28;20036;-73
2022/04/15 04:19:48;;;;;;;9.07;4.65;;;9.10;55.30;;;;;;5060603;28;20445;-73
2022/04/15 04:22:14;;;;;;;10.05;4.25;;;9.10;55.50;;;;;;5062432;28;20043;-74
2022/04/15 04:24:40;;;;;;;14.77;3.97;;;9.10;55.50;;;;;;5076292;28;20433;-74
2022/04/15 04:27:25;;;;;;;9.63;4.50;;;9.10;55.50;;;;;;5075545;28;20443;-74
2022/04/15 04:29:53;;;;;;;10.52;5.65;;;9.10;55.70;;;;;;5060364;28;20070;-74
2022/04/15 04:32:38;;;;;;;14.05;5.25;;;9.10;55.60;;;;;;5076607;28;20094;-73
2022/04/15 04:35:32;;;;;;;13.93;5.70;;;9.10;55.80;;;;;;5059166;28;20036;-74
2022/04/15 04:38:18;;;;;;;66.30;28.17;;;9.10;55.80;;;;;;5093188;28;20097;-74
2022/04/15 04:40:48;;;;;;;41.00;15.73;;;9.10;55.70;;;;;;5075698;28;20119;-73
2022/04/15 04:43:14;;;;;;;16.42;7.68;;;9.10;55.40;;;;;;5076230;28;20040;-74
2022/04/15 04:45:45;;;;;;;12.00;5.25;;;9.00;55.90;;;;;;5075373;28;20040;-72
2022/04/15 04:48:14;;;;;;;58.40;26.17;;;9.10;56.10;;;;;;5076460;28;20047;-74
2022/04/15 04:50:40;;;;;;;35.30;15.55;;;9.10;56.20;;;;;;5075407;28;20504;-74
2022/04/15 04:53:07;;;;;;;20.20;7.05;;;9.10;56.20;;;;;;5074309;28;20134;-75
2022/04/15 04:55:39;;;;;;;11.25;6.15;;;9.10;56.20;;;;;;5075345;28;20028;-74
2022/04/15 04:58:05;;;;;;;9.95;5.68;;;9.10;56.40;;;;;;5093833;28;20042;-73
2022/04/15 05:00:36;;;;;;;11.02;6.32;;;9.20;56.00;;;;;;5075283;28;20040;-74
2022/04/15 05:03:03;;;;;;;11.48;5.70;;;9.30;56.10;;;;;;5076335;28;20098;-73
2022/04/15 05:05:32;;;;;;;12.90;6.45;;;9.30;55.90;;;;;;5093301;28;20036;-74
2022/04/15 05:07:58;;;;;;;18.50;8.05;;;9.40;55.70;;;;;;5058008;28;20032;-74
2022/04/15 05:10:31;;;;;;;13.13;7.97;;;9.40;55.90;;;;;;5075070;28;20035;-74
2022/04/15 05:13:16;;;;;;;16.90;8.45;;;9.40;56.00;;;;;;5074241;28;20106;-74
2022/04/15 05:15:56;;;;;;;15.75;8.05;;;9.50;55.80;;;;;;5074784;28;20378;-74
2022/04/15 05:18:25;;;;;;;11.10;6.40;;;9.50;55.90;;;;;;5090390;28;20109;-74
2022/04/15 05:20:58;;;;;;;13.00;6.65;;;9.50;56.30;;;;;;5075398;28;20032;-74
2022/04/15 05:23:29;;;;;;;11.15;6.38;;;9.60;56.40;;;;;;5092463;28;20385;-74
2022/04/15 05:25:55;;;;;;;11.98;4.60;;;9.60;56.40;;;;;;5057513;28;20048;-74
2022/04/15 05:28:24;;;;;;;8.43;4.30;;;9.50;56.70;;;;;;5075283;28;20377;-74
2022/04/15 05:31:03;;;;;;;8.40;4.22;;;9.40;56.80;;;;;;5074714;28;20047;-74
2022/04/15 05:33:32;;;;;;;11.55;5.22;;;9.40;57.00;;;;;;5058299;28;20070;-74
2022/04/15 05:35:59;;;;;;;12.00;5.75;;;9.50;56.40;;;;;;5075188;28;20031;-74
2022/04/15 05:38:26;;;;;;;11.60;5.70;;;9.60;56.80;;;;;;5092227;28;20123;-75
2022/04/15 05:40:54;;;;;;;10.30;6.13;;;9.60;56.80;;;;;;5092430;28;20051;-73
2022/04/15 05:43:31;;;;;;;11.45;6.20;;;9.70;56.60;;;;;;5058774;28;20119;-74
2022/04/15 05:45:59;;;;;;;10.02;6.32;;;9.80;56.50;;;;;;5057813;28;20548;-74
2022/04/15 05:48:27;;;;;;;11.73;5.90;;;9.90;56.50;;;;;;5058293;28;20040;-74
2022/04/15 05:51:08;;;;;;;;;;;;;;;;;;;;;
2022/04/15 05:54:07;;;;;;;20.33;10.80;;;10.10;56.50;;;;;;5091953;28;20044;-74
2022/04/15 05:56:59;;;;;;;16.80;9.38;;;10.20;56.40;;;;;;5092895;28;20028;-74
2022/04/15 05:59:25;;;;;;;16.55;9.40;;;10.30;57.00;;;;;;5074901;28;20187;-74
2022/04/15 06:01:54;;;;;;;17.05;8.52;;;10.40;56.80;;;;;;5074232;28;20047;-74
2022/04/15 06:04:40;;;;;;;15.40;8.30;;;10.50;56.50;;;;;;5075218;28;20044;-74
2022/04/15 06:07:28;;;;;;;14.90;8.00;;;10.70;56.50;;;;;;5092373;28;20481;-74
2022/04/15 06:09:58;;;;;;;13.32;7.30;;;10.80;56.20;;;;;;5092121;28;20396;-74
2022/04/15 06:12:57;;;;;;;13.60;8.18;;;11.00;56.40;;;;;;5074062;28;20040;-74
2022/04/15 06:15:31;;;;;;;16.27;9.65;;;11.10;56.50;;;;;;5076960;28;20039;-74
2022/04/15 06:18:06;;;;;;;24.92;12.02;;;11.30;56.50;;;;;;5075228;28;20408;-74
2022/04/15 06:20:46;;;;;;;22.90;14.82;;;11.50;56.50;;;;;;5074673;28;20100;-74
2022/04/15 06:23:44;;;;;;;21.25;13.32;;;11.60;55.60;;;;;;5091560;28;20072;-74
2022/04/15 06:26:14;;;;;;;13.68;8.20;;;11.80;55.90;;;;;;5074213;28;20032;-74
2022/04/15 06:28:43;;;;;;;19.63;11.02;;;12.00;56.00;;;;;;5074517;28;20059;-74
2022/04/15 06:31:13;;;;;;;14.35;9.10;;;12.20;56.10;;;;;;5073983;28;20495;-74
2022/04/15 06:33:50;;;;;;;21.65;13.88;;;12.30;56.00;;;;;;5074719;28;20032;-74
2022/04/15 06:36:29;;;;;;;18.50;12.68;;;12.40;55.50;;;;;;5092115;28;20449;-74
2022/04/15 06:39:11;;;;;;;18.50;10.75;;;12.60;55.30;;;;;;5073559;28;20043;-73
2022/04/15 06:42:16;;;;;;;17.48;8.82;;;12.70;55.10;;;;;;5077280;28;20047;-74
2022/04/15 06:44:44;;;;;;;19.83;9.63;;;13.00;54.70;;;;;;5075356;28;20075;-74
2022/04/15 06:47:36;;;;;;;14.30;8.45;;;13.10;54.40;;;;;;5092356;28;20036;-74
2022/04/15 06:51:02;;;;;;;19.40;9.35;;;13.20;53.70;;;;;;5092341;28;20039;-74
2022/04/15 06:54:10;;;;;;;14.02;8.55;;;13.40;53.50;;;;;;5091185;28;20071;-74
2022/04/15 06:56:35;;;;;;;13.65;6.38;;;13.70;53.20;;;;;;5091545;28;20141;-74
2022/04/15 07:01:50;;;;;;;11.50;6.22;;;14.00;52.70;;;;;;5062778;28;20094;-74
2022/04/15 07:04:16;;;;;;;16.17;6.47;;;14.20;52.30;;;;;;5057499;28;20059;-74
2022/04/15 07:06:45;;;;;;;14.30;6.40;;;14.40;52.00;;;;;;5091905;28;20063;-74
2022/04/15 07:09:13;;;;;;;9.98;5.68;;;14.60;52.00;;;;;;5091135;28;20040;-74
2022/04/15 07:11:46;;;;;;;15.88;7.78;;;14.80;51.30;;;;;;5074895;28;20063;-74
2022/04/15 07:14:15;;;;;;;13.05;6.50;;;15.20;51.50;;;;;;5074193;28;20039;-74
2022/04/15 07:16:42;;;;;;;11.63;6.90;;;15.70;51.60;;;;;;5076553;28;20036;-72
2022/04/15 07:19:11;;;;;;;;;;;16.30;51.50;;;;;;5061794;28;20046;-74
2022/04/15 07:21:45;;;;;;;12.70;5.68;;;16.80;52.30;;;;;;5077253;28;19916;-72
2022/04/15 07:24:23;;;;;;;9.40;5.45;;;17.40;50.50;;;;;;5077063;28;20051;-73
2022/04/15 07:27:03;;;;;;;12.70;5.78;;;18.00;49.70;;;;;;5095508;28;20039;-74
2022/04/15 07:29:30;;;;;;;11.48;5.63;;;18.70;48.30;;;;;;5060359;28;20142;-75
2022/04/15 07:31:57;;;;;;;11.70;5.10;;;19.30;47.70;;;;;;5060199;28;20040;-75
2022/04/15 07:34:29;;;;;;;14.77;5.40;;;19.80;45.90;;;;;;5077572;28;20040;-74
2022/04/15 07:37:12;;;;;;;9.45;4.60;;;20.50;44.60;;;;;;5077077;28;20040;-75
2022/04/15 07:39:45;;;;;;;9.85;5.78;;;21.00;43.10;;;;;;5076681;28;20439;-75
2022/04/15 07:42:14;;;;;;;9.40;5.30;;;21.70;41.60;;;;;;5077066;28;20075;-72
2022/04/15 07:44:44;;;;;;;9.63;4.45;;;22.30;40.40;;;;;;5095235;28;20054;-74
2022/04/15 07:47:10;;;;;;;8.93;4.43;;;22.90;39.10;;;;;;5076957;28;20365;-72
2022/04/15 07:49:47;;;;;;;7.78;4.15;;;23.40;37.90;;;;;;5077182;28;20036;-72
2022/04/15 07:52:35;;;;;;;8.23;4.32;;;23.90;35.80;;;;;;5079957;28;20054;-74
2022/04/15 07:55:02;;;;;;;8.18;4.63;;;24.60;33.80;;;;;;5094252;28;20123;-72
2022/04/15 07:57:30;;;;;;;7.85;4.07;;;25.10;32.40;;;;;;5076628;28;20096;-72
2022/04/15 08:00:01;;;;;;;6.65;4.10;;;25.70;31.40;;;;;;5094931;28;20070;-73
2022/04/15 08:02:46;;;;;;;8.00;4.38;;;26.20;30.20;;;;;;5092321;28;20048;-72
2022/04/15 08:05:18;;;;;;;8.13;4.35;;;27.00;29.20;;;;;;5094465;28;20036;-72
2022/04/15 08:08:03;;;;;;;9.20;4.20;;;27.50;27.60;;;;;;5076853;28;20496;-73
2022/04/15 08:10:40;;;;;;;8.95;4.20;;;27.90;27.40;;;;;;5093464;28;20562;-73
2022/04/15 08:13:10;;;;;;;12.05;4.18;;;28.70;27.00;;;;;;5076165;28;20042;-73
2022/04/15 08:16:16;;;;;;;7.65;3.90;;;29.40;25.10;;;;;;5076104;28;20028;-73
2022/04/15 08:18:44;;;;;;;6.55;3.60;;;30.10;25.60;;;;;;5094692;28;20044;-73
2022/04/15 08:21:13;;;;;;;7.65;3.78;;;30.70;24.10;;;;;;5059427;28;20043;-75
2022/04/15 08:23:39;;;;;;;8.13;3.80;;;31.20;23.00;;;;;;5076685;28;20119;-74
2022/04/15 08:26:06;;;;;;;7.13;3.65;;;32.00;22.50;;;;;;5091563;28;20451;-73
2022/04/15 08:28:47;;;;;;;11.32;3.70;;;32.40;21.80;;;;;;5058680;28;20090;-75
2022/04/15 08:31:14;;;;;;;6.82;3.97;;;32.90;21.50;;;;;;5094022;28;20028;-75
2022/04/15 08:33:43;;;;;;;5.80;3.00;;;33.60;20.90;;;;;;5076046;28;20032;-74
2022/04/15 08:36:18;;;;;;;8.80;3.15;;;34.20;19.90;;;;;;5059587;28;20042;-75
2022/04/15 08:38:44;;;;;;;10.13;3.78;;;34.90;18.90;;;;;;5076041;28;20028;-75
2022/04/15 08:41:24;;;;;;;6.47;3.70;;;35.30;18.70;;;;;;5074451;28;20417;-73
2022/04/15 08:44:09;;;;;;;6.07;3.33;;;35.60;18.00;;;;;;5078989;28;20051;-75
2022/04/15 08:46:41;;;;;;;6.93;3.58;;;36.10;17.70;;;;;;5075397;28;20036;-75
2022/04/15 08:49:18;;;;;;;6.22;3.47;;;36.50;17.50;;;;;;5075955;28;20040;-75
2022/04/15 08:52:07;;;;;;;7.80;4.03;;;36.90;17.00;;;;;;5076178;28;20028;-75
2022/04/15 08:54:53;;;;;;;9.50;4.03;;;37.10;17.20;;;;;;5078188;28;20055;-75
2022/04/15 08:57:28;;;;;;;6.72;4.28;;;37.30;17.10;;;;;;5093691;28;20028;-73
2022/04/15 08:59:57;;;;;;;10.20;4.22;;;37.60;17.10;;;;;;5093928;28;20037;-75
2022/04/15 09:02:52;;;;;;;8.98;4.38;;;37.60;16.80;;;;;;5093640;28;20465;-74
2022/04/15 09:05:51;;;;;;;10.95;3.13;;;37.50;16.30;;;;;;5093253;28;20055;-74
2022/04/15 09:08:23;;;;;;;17.02;8.90;;;37.50;16.60;;;;;;5093724;28;20036;-74
2022/04/15 09:11:11;;;;;;;9.82;6.65;;;37.30;15.80;;;;;;5074463;28;20059;-74
2022/04/15 09:13:40;;;;;;;9.13;4.68;;;37.50;16.20;;;;;;5075358;28;20039;-74
2022/04/15 09:16:17;;;;;;;8.05;3.03;;;38.30;15.60;;;;;;5074871;28;20055;-75
2022/04/15 09:18:49;;;;;;;6.78;3.40;;;38.90;14.90;;;;;;5075424;28;20040;-74
2022/04/15 09:21:50;;;;;;;5.70;2.80;;;39.40;14.60;;;;;;5078808;28;20039;-74
2022/04/15 09:24:42;;;;;;;6.80;3.08;;;39.40;14.30;;;;;;5097932;28;20040;-74
2022/04/15 09:27:18;;;;;;;7.80;3.08;;;39.40;14.40;;;;;;5113650;28;20379;-75
2022/04/15 09:29:47;;;;;;;5.38;2.70;;;39.70;13.70;;;;;;5113654;28;20088;-74
2022/04/15 09:32:18;;;;;;;5.70;2.60;;;39.70;13.30;;;;;;5078103;28;20051;-74
2022/04/15 09:35:16;;;;;;;6.88;2.97;;;40.10;13.50;;;;;;5095707;28;20038;-75
2022/04/15 09:37:43;;;;;;;8.88;3.15;;;40.40;13.40;;;;;;5096661;28;20038;-75
2022/04/15 09:40:35;;;;;;;7.60;3.22;;;40.70;13.00;;;;;;5112117;28;20050;-74
2022/04/15 09:43:06;;;;;;;13.23;2.88;;;40.90;13.10;;;;;;5071934;28;20534;-75
2022/04/15 09:45:53;;;;;;;6.78;3.38;;;41.20;13.10;;;;;;5071368;28;20577;-75
2022/04/15 09:48:32;;;;;;;11.07;5.00;;;41.30;13.10;;;;;;5055217;28;20033;-75
2022/04/15 09:51:01;;;;;;;6.63;3.92;;;41.70;12.70;;;;;;5071171;28;20101;-74
2022/04/15 09:53:55;;;;;;;7.05;3.47;;;42.00;12.20;;;;;;5071739;28;20037;-75
2022/04/15 09:56:26;;;;;;;6.78;3.72;;;42.00;12.40;;;;;;5070122;28;20070;-74
2022/04/15 09:59:16;;;;;;;6.78;3.47;;;42.10;11.90;;;;;;5071450;28;20422;-74
2022/04/15 10:01:46;;;;;;;11.55;3.88;;;42.60;12.00;;;;;;5010087;28;20042;-75
2022/04/15 10:04:24;;;;;;;7.55;3.47;;;42.90;11.50;;;;;;4994224;28;20119;-74
2022/04/15 10:07:04;;;;;;;6.68;3.60;;;43.50;11.50;;;;;;4993682;28;20104;-73
2022/04/15 10:09:35;;;;;;;8.07;4.35;;;43.70;11.20;;;;;;5010531;28;20042;-74
2022/04/15 10:12:03;;;;;;;6.25;3.75;;;44.30;11.50;;;;;;5008966;28;20438;-74
2022/04/15 10:14:30;;;;;;;8.18;3.45;;;44.80;11.00;;;;;;4994262;28;20510;-74
2022/04/15 10:17:03;;;;;;;6.53;4.18;;;45.20;10.70;;;;;;4993574;28;20038;-74
2022/04/15 10:19:37;;;;;;;8.60;4.70;;;45.30;10.50;;;;;;4993994;28;20092;-74
2022/04/15 10:22:11;;;;;;;9.87;4.70;;;45.10;10.50;;;;;;4993522;28;20041;-75
2022/04/15 10:25:28;;;;;;;8.20;4.15;;;45.00;10.30;;;;;;4996509;28;20062;-73
2022/04/15 10:28:53;;;;;;;16.60;4.57;;;44.80;10.20;;;;;;4990809;28;20400;-75
2022/04/15 10:31:42;;;;;;;7.07;4.28;;;45.10;10.70;;;;;;5010063;28;20041;-75
2022/04/15 10:34:31;;;;;;;10.50;4.78;;;45.80;10.00;;;;;;5033934;28;20379;-74
2022/04/15 10:36:57;;;;;;;8.32;4.13;;;46.10;10.10;;;;;;5051675;28;20033;-75
2022/04/15 10:39:48;;;;;;;7.93;4.22;;;46.50;9.50;;;;;;5034439;28;20037;-75
2022/04/15 10:42:37;;;;;;;6.50;4.65;;;46.40;9.40;;;;;;5031896;28;20049;-75
2022/04/15 10:45:39;;;;;;;10.77;4.63;;;46.40;9.40;;;;;;5050744;28;20039;-74
2022/04/15 10:48:13;;;;;;;7.47;4.95;;;46.90;9.30;;;;;;5052467;28;20124;-75
2022/04/15 10:50:57;;;;;;;10.32;5.82;;;47.20;9.50;;;;;;5052076;28;20056;-74
2022/04/15 10:53:23;;;;;;;8.55;5.72;;;46.60;9.30;;;;;;5054779;28;20045;-74
2022/04/15 10:56:14;;;;;;;8.20;5.32;;;46.70;9.40;;;;;;5039461;28;20025;-74
2022/04/15 11:02:24;;;;;;;8.68;5.70;;;47.30;9.70;;;;;;5055703;28;20048;-74
2022/04/15 11:04:56;;;;;;;10.20;5.03;;;46.90;9.20;;;;;;5038114;28;20041;-74
2022/04/15 11:07:41;;;;;;;9.27;5.80;;;46.60;9.10;;;;;;5021020;28;20087;-74
2022/04/15 11:10:37;;;;;;;;;;;47.20;9.50;;;;;;5037968;28;20037;-74
2022/04/15 11:13:08;;;;;;;9.20;6.47;;;47.60;9.30;;;;;;5056095;28;20008;-74
2022/04/15 11:16:13;;;;;;;10.45;5.72;;;48.00;9.00;;;;;;5037485;28;20537;-74
2022/04/15 11:18:59;;;;;;;8.15;5.70;;;47.60;9.00;;;;;;5021311;28;20127;-74
2022/04/15 11:21:37;;;;;;;12.25;7.28;;;46.80;9.40;;;;;;5037342;28;20039;-74
2022/04/15 11:24:06;;;;;;;9.02;5.88;;;46.00;10.00;;;;;;5021354;28;20045;-74
2022/04/15 11:26:44;;;;;;;9.27;5.78;;;46.90;9.70;;;;;;5048151;28;20040;-74
2022/04/15 11:29:41;;;;;;;8.18;6.63;;;47.20;9.60;;;;;;5057924;28;20043;-74
2022/04/15 11:32:10;;;;;;;8.70;5.88;;;47.40;9.50;;;;;;5058363;28;20033;-74
2022/04/15 11:34:46;;;;;;;11.68;6.50;;;46.90;9.40;;;;;;5073858;28;20051;-74
2022/04/15 11:37:29;;;;;;;8.88;6.97;;;46.60;9.90;;;;;;5075377;28;20132;-75
2022/04/15 11:40:01;;;;;;;11.13;5.97;;;47.20;9.70;;;;;;5057472;28;20523;-74
2022/04/15 11:45:55;;;;;;;10.73;5.72;;;47.60;9.00;;;;;;5080686;28;20535;-74
2022/04/15 11:48:57;;;;;;;11.33;8.60;;;44.60;10.90;;;;;;5076931;28;20040;-74
2022/04/15 11:51:55;;;;;;;7.30;5.57;;;42.40;11.40;;;;;;5060180;28;20829;-74
2022/04/15 11:54:50;;;;;;;11.02;6.15;;;43.40;11.20;;;;;;5094994;28;20043;-74
2022/04/15 11:57:21;;;;;;;9.50;5.57;;;44.70;10.90;;;;;;5075627;28;20040;-74
2022/04/15 12:00:10;;;;;;;;;;;44.50;10.80;;;;;;5078968;28;20119;-74
2022/04/15 12:03:25;;;;;;;8.23;4.70;;;43.10;11.30;;;;;;5077518;28;19965;-74
2022/04/15 12:06:20;;;;;;;;;;;;;;;;;;;;;
2022/04/15 12:09:06;;;;;;;8.65;4.88;;;43.60;11.30;;;;;;5002446;28;20528;-74
2022/04/15 12:11:33;;;;;;;9.27;5.22;;;42.80;11.60;;;;;;5020325;28;20042;-75
2022/04/15 12:14:12;;;;;;;7.20;4.90;;;43.10;11.40;;;;;;5032104;28;20516;-75
2022/04/15 12:16:41;;;;;;;11.55;8.48;;;43.60;11.70;;;;;;5031655;28;20049;-74
2022/04/15 12:19:22;;;;;;;8.18;5.68;;;43.60;11.60;;;;;;5015468;28;20482;-74
2022/04/15 12:22:14;;;;;;;8.73;5.80;;;43.70;11.60;;;;;;4997409;28;20045;-75
2022/04/15 12:24:51;;;;;;;7.47;4.97;;;43.90;11.40;;;;;;5014667;28;20041;-74
2022/04/15 12:27:34;;;;;;;7.10;5.45;;;42.70;11.70;;;;;;5030576;28;20037;-74
2022/04/15 12:31:05;;;;;;;6.95;5.20;;;40.90;12.30;;;;;;4998773;28;20080;-74
2022/04/15 12:33:31;;;;;;;11.68;5.35;;;38.80;13.70;;;;;;5025781;28;20057;-74
2022/04/15 12:36:17;;;;;;;10.38;5.78;;;37.80;15.60;;;;;;5014830;28;20099;-74
2022/04/15 12:39:25;;;;;;;10.00;5.60;;;38.80;14.50;;;;;;5015212;28;20037;-75
2022/04/15 12:41:51;;;;;;;8.63;5.28;;;38.50;14.30;;;;;;5002894;28;20050;-76
2022/04/15 12:44:39;;;;;;;10.77;6.30;;;37.60;15.10;;;;;;5071740;28;20068;-76
2022/04/15 12:47:18;;;;;;;8.80;5.40;;;36.60;15.70;;;;;;5056097;28;20104;-76
2022/04/15 12:49:44;;;;;;;6.88;4.70;;;36.10;16.20;;;;;;5055784;28;20036;-76
2022/04/15 12:52:36;;;;;;;10.98;4.43;;;36.20;16.30;;;;;;5038384;28;20485;-75
2022/04/15 12:55:08;;;;;;;10.60;4.18;;;37.40;15.70;;;;;;5073818;28;20043;-75
2022/04/15 12:57:41;;;;;;;12.05;4.90;;;37.30;15.40;;;;;;5054893;28;20499;-75
2022/04/15 13:00:34;;;;;;;9.82;4.40;;;37.30;15.70;;;;;;5038754;28;20055;-75
2022/04/15 13:03:05;;;;;;;9.30;5.03;;;36.90;15.40;;;;;;5056395;28;20115;-75
2022/04/15 13:05:31;;;;;;;7.05;4.10;;;36.20;15.70;;;;;;5055033;28;20086;-75
2022/04/15 13:08:00;;;;;;;8.05;4.20;;;36.10;16.30;;;;;;5072380;28;20123;-75
2022/04/15 13:10:32;;;;;;;8.57;4.47;;;36.90;15.60;;;;;;5055509;28;20529;-75
2022/04/15 13:13:12;;;;;;;7.75;4.60;;;36.50;16.50;;;;;;5071892;28;20052;-76
2022/04/15 13:15:38;;;;;;;7.32;4.15;;;36.60;15.70;;;;;;5055184;28;20040;-76
2022/04/15 13:18:14;;;;;;;7.28;4.70;;;35.70;16.30;;;;;;5055378;28;20258;-76
2022/04/15 13:20:44;;;;;;;8.93;4.05;;;34.80;16.60;;;;;;5072634;28;20048;-77
2022/04/15 13:23:16;;;;;;;9.45;4.35;;;36.30;16.40;;;;;;5055583;28;20067;-76
2022/04/15 13:25:45;;;;;;;8.40;4.43;;;36.90;15.40;;;;;;5038827;28;20059;-75
2022/04/15 13:28:17;;;;;;;7.20;4.18;;;35.90;16.20;;;;;;5054396;28;20422;-76
2022/04/15 13:30:48;;;;;;;8.00;4.15;;;34.70;17.10;;;;;;5055419;28;20452;-76
2022/04/15 13:33:14;;;;;;;10.32;4.50;;;33.80;18.00;;;;;;5055291;28;20063;-75
2022/04/15 13:35:47;;;;;;;7.47;4.60;;;33.20;18.90;;;;;;5072571;28;20115;-76
2022/04/15 13:38:24;;;;;;;7.78;4.15;;;32.70;19.10;;;;;;5054982;28;20397;-75
2022/04/15 13:40:54;;;;;;;6.75;4.15;;;32.30;19.40;;;;;;5041117;28;20058;-75
2022/04/15 13:43:23;;;;;;;8.73;4.00;;;33.50;18.60;;;;;;5092018;28;20040;-75
2022/04/15 13:45:55;;;;;;;9.10;4.22;;;34.90;17.60;;;;;;5074625;28;20102;-76